sensor_id;sensor_type;location;lat;lon;timestamp;temperature;humidity
50947;DHT22;36955;47.416;7.716;2022-11-12T00:00:22;6.20;99.90
50947;DHT22;36955;47.416;7.716;2022-11-12T00:02:49;6.20;99.90
50947;DHT22;36955;47.416;7.716;2022-11-12T00:05:15;6.20;99.90
50947;DHT22;36955;47.416;7.716;2022-11-12T00:07:41;6.10;99.90
50947;DHT22;36955;47.416;7.716;2022-11-12T00:10:07;6.10;99.90
50947;DHT22;36955;47.416;7.716;2022-11-12T00:12:33;6.10;99.90
50947;DHT22;36955;47.416;7.716;2022-11-12T00:14:59;6.10;99.90
50947;DHT22;36955;47.416;7.716;2022-11-12T00:17:25;6.10;99.90
50947;DHT22;36955;47.416;7.716;2022-11-12T00:19:51;6.10;99.90
50947;DHT22;36955;47.416;7.716;2022-11-12T00:22:17;6.10;99.90
50947;DHT22;36955;47.416;7.716;2022-11-12T00:24:43;6.10;99.90
50947;DHT22;36955;47.416;7.716;2022-11-12T00:27:09;6.10;99.90
50947;DHT22;36955;47.416;7.716;2022-11-12T00:29:35;6.20;99.90
50947;DHT22;36955;47.416;7.716;2022-11-12T00:32:02;6.20;99.90
50947;DHT22;36955;47.416;7.716;2022-11-12T00:34:28;6.30;99.90
50947;DHT22;36955;47.416;7.716;2022-11-12T00:36:54;6.30;99.90
50947;DHT22;36955;47.416;7.716;2022-11-12T00:39:20;6.30;99.90
50947;DHT22;36955;47.416;7.716;2022-11-12T00:41:46;6.30;99.90
50947;DHT22;36955;47.416;7.716;2022-11-12T00:44:12;6.20;99.90
50947;DHT22;36955;47.416;7.716;2022-11-12T00:46:38;6.20;99.90
50947;DHT22;36955;47.416;7.716;2022-11-12T00:49:04;6.20;99.90
50947;DHT22;36955;47.416;7.716;2022-11-12T00:51:30;6.10;99.90
50947;DHT22;36955;47.416;7.716;2022-11-12T00:53:56;6.10;99.90
50947;DHT22;36955;47.416;7.716;2022-11-12T00:56:22;6.10;99.90
50947;DHT22;36955;47.416;7.716;2022-11-12T00:58:48;6.00;99.90
50947;DHT22;36955;47.416;7.716;2022-11-12T01:01:15;6.00;99.90
50947;DHT22;36955;47.416;7.716;2022-11-12T01:03:42;5.90;99.90
50947;DHT22;36955;47.416;7.716;2022-11-12T01:06:13;5.80;99.90
50947;DHT22;36955;47.416;7.716;2022-11-12T01:08:40;5.70;99.90
50947;DHT22;36955;47.416;7.716;2022-11-12T01:11:14;5.60;99.90
50947;DHT22;36955;47.416;7.716;2022-11-12T01:13:42;5.60;99.90
50947;DHT22;36955;47.416;7.716;2022-11-12T01:16:11;5.60;99.90
50947;DHT22;36955;47.416;7.716;2022-11-12T01:18:38;5.50;99.90
50947;DHT22;36955;47.416;7.716;2022-11-12T01:21:06;5.40;99.90
50947;DHT22;36955;47.416;7.716;2022-11-12T01:23:34;5.40;99.90
50947;DHT22;36955;47.416;7.716;2022-11-12T01:26:08;5.40;99.90
50947;DHT22;36955;47.416;7.716;2022-11-12T01:28:35;5.40;99.90
50947;DHT22;36955;47.416;7.716;2022-11-12T01:31:21;5.40;99.90
50947;DHT22;36955;47.416;7.716;2022-11-12T01:33:52;5.40;99.90
50947;DHT22;36955;47.416;7.716;2022-11-12T01:36:19;5.50;99.90
50947;DHT22;36955;47.416;7.716;2022-11-12T01:38:46;5.60;99.90
50947;DHT22;36955;47.416;7.716;2022-11-12T01:41:20;5.60;99.90
50947;DHT22;36955;47.416;7.716;2022-11-12T01:43:47;5.50;99.90
50947;DHT22;36955;47.416;7.716;2022-11-12T01:46:31;5.50;99.90
50947;DHT22;36955;47.416;7.716;2022-11-12T01:49:01;5.50;99.90
50947;DHT22;36955;47.416;7.716;2022-11-12T01:51:33;5.50;99.90
50947;DHT22;36955;47.416;7.716;2022-11-12T01:54:01;5.40;99.90
50947;DHT22;36955;47.416;7.716;2022-11-12T01:56:29;5.40;99.90
50947;DHT22;36955;47.416;7.716;2022-11-12T01:59:02;5.40;99.90
50947;DHT22;36955;47.416;7.716;2022-11-12T02:01:29;5.40;99.90
50947;DHT22;36955;47.416;7.716;2022-11-12T02:03:55;5.30;99.90
50947;DHT22;36955;47.416;7.716;2022-11-12T02:06:22;5.30;99.90
50947;DHT22;36955;47.416;7.716;2022-11-12T02:08:49;5.20;99.90
50947;DHT22;36955;47.416;7.716;2022-11-12T02:11:19;5.20;99.90
50947;DHT22;36955;47.416;7.716;2022-11-12T02:13:47;5.20;99.90
50947;DHT22;36955;47.416;7.716;2022-11-12T02:16:14;5.10;99.90
50947;DHT22;36955;47.416;7.716;2022-11-12T02:18:40;5.00;99.90
50947;DHT22;36955;47.416;7.716;2022-11-12T02:21:08;5.00;99.90
50947;DHT22;36955;47.416;7.716;2022-11-12T02:23:34;5.00;99.90
50947;DHT22;36955;47.416;7.716;2022-11-12T02:26:00;5.00;99.90
50947;DHT22;36955;47.416;7.716;2022-11-12T02:28:27;5.00;99.90
50947;DHT22;36955;47.416;7.716;2022-11-12T02:30:55;5.00;99.90
50947;DHT22;36955;47.416;7.716;2022-11-12T02:33:21;5.00;99.90
50947;DHT22;36955;47.416;7.716;2022-11-12T02:35:47;5.00;99.90
50947;DHT22;36955;47.416;7.716;2022-11-12T02:38:13;5.00;99.90
50947;DHT22;36955;47.416;7.716;2022-11-12T02:40:39;5.00;99.90
50947;DHT22;36955;47.416;7.716;2022-11-12T02:43:05;5.00;99.90
50947;DHT22;36955;47.416;7.716;2022-11-12T02:45:31;5.10;99.90
50947;DHT22;36955;47.416;7.716;2022-11-12T02:47:57;5.10;99.90
50947;DHT22;36955;47.416;7.716;2022-11-12T02:50:23;5.20;99.90
50947;DHT22;36955;47.416;7.716;2022-11-12T02:52:49;5.20;99.90
50947;DHT22;36955;47.416;7.716;2022-11-12T02:55:15;5.20;99.90
50947;DHT22;36955;47.416;7.716;2022-11-12T02:57:41;5.20;99.90
50947;DHT22;36955;47.416;7.716;2022-11-12T03:00:10;5.20;99.90
50947;DHT22;36955;47.416;7.716;2022-11-12T03:02:37;5.20;99.90
50947;DHT22;36955;47.416;7.716;2022-11-12T03:05:03;5.10;99.90
50947;DHT22;36955;47.416;7.716;2022-11-12T03:07:29;5.10;99.90
50947;DHT22;36955;47.416;7.716;2022-11-12T03:09:55;5.00;99.90
50947;DHT22;36955;47.416;7.716;2022-11-12T03:12:21;5.00;99.90
50947;DHT22;36955;47.416;7.716;2022-11-12T03:14:47;5.00;99.90
50947;DHT22;36955;47.416;7.716;2022-11-12T03:17:13;5.00;99.90
50947;DHT22;36955;47.416;7.716;2022-11-12T03:19:39;5.10;99.90
50947;DHT22;36955;47.416;7.716;2022-11-12T03:22:05;5.20;99.90
50947;DHT22;36955;47.416;7.716;2022-11-12T03:24:31;5.20;99.90
50947;DHT22;36955;47.416;7.716;2022-11-12T03:26:57;5.20;99.90
50947;DHT22;36955;47.416;7.716;2022-11-12T03:29:23;5.20;99.90
50947;DHT22;36955;47.416;7.716;2022-11-12T03:31:49;5.10;99.90
50947;DHT22;36955;47.416;7.716;2022-11-12T03:34:15;5.00;99.90
50947;DHT22;36955;47.416;7.716;2022-11-12T03:36:41;5.00;99.90
50947;DHT22;36955;47.416;7.716;2022-11-12T03:39:07;4.90;99.90
50947;DHT22;36955;47.416;7.716;2022-11-12T03:41:33;4.90;99.90
50947;DHT22;36955;47.416;7.716;2022-11-12T03:44:00;4.90;99.90
50947;DHT22;36955;47.416;7.716;2022-11-12T03:46:26;4.90;99.90
50947;DHT22;36955;47.416;7.716;2022-11-12T03:48:52;4.90;99.90
50947;DHT22;36955;47.416;7.716;2022-11-12T03:51:18;4.90;99.90
50947;DHT22;36955;47.416;7.716;2022-11-12T03:53:44;4.90;99.90
50947;DHT22;36955;47.416;7.716;2022-11-12T03:56:10;4.90;99.90
50947;DHT22;36955;47.416;7.716;2022-11-12T03:58:36;5.00;99.90
50947;DHT22;36955;47.416;7.716;2022-11-12T04:01:02;5.10;99.90
50947;DHT22;36955;47.416;7.716;2022-11-12T04:03:28;5.10;99.90
50947;DHT22;36955;47.416;7.716;2022-11-12T04:05:54;5.10;99.90
50947;DHT22;36955;47.416;7.716;2022-11-12T04:08:22;5.00;99.90
50947;DHT22;36955;47.416;7.716;2022-11-12T04:10:48;5.10;99.90
50947;DHT22;36955;47.416;7.716;2022-11-12T04:13:14;5.10;99.90
50947;DHT22;36955;47.416;7.716;2022-11-12T04:15:40;5.20;99.90
50947;DHT22;36955;47.416;7.716;2022-11-12T04:18:06;5.20;99.90
50947;DHT22;36955;47.416;7.716;2022-11-12T04:20:32;5.20;99.90
50947;DHT22;36955;47.416;7.716;2022-11-12T04:22:58;5.30;99.90
50947;DHT22;36955;47.416;7.716;2022-11-12T04:25:24;5.20;99.90
50947;DHT22;36955;47.416;7.716;2022-11-12T04:27:50;5.10;99.90
50947;DHT22;36955;47.416;7.716;2022-11-12T04:30:17;5.10;99.90
50947;DHT22;36955;47.416;7.716;2022-11-12T04:32:51;5.30;99.90
50947;DHT22;36955;47.416;7.716;2022-11-12T04:35:17;5.30;99.90
50947;DHT22;36955;47.416;7.716;2022-11-12T04:37:44;5.30;99.90
50947;DHT22;36955;47.416;7.716;2022-11-12T04:42:42;5.30;99.90
50947;DHT22;36955;47.416;7.716;2022-11-12T04:45:12;5.30;99.90
50947;DHT22;36955;47.416;7.716;2022-11-12T04:47:40;5.30;99.90
50947;DHT22;36955;47.416;7.716;2022-11-12T04:50:11;5.30;99.90
50947;DHT22;36955;47.416;7.716;2022-11-12T04:52:38;5.30;99.90
50947;DHT22;36955;47.416;7.716;2022-11-12T04:55:04;5.30;99.90
50947;DHT22;36955;47.416;7.716;2022-11-12T04:57:30;5.30;99.90
50947;DHT22;36955;47.416;7.716;2022-11-12T04:59:56;5.30;99.90
50947;DHT22;36955;47.416;7.716;2022-11-12T05:02:22;5.30;99.90
50947;DHT22;36955;47.416;7.716;2022-11-12T05:04:48;5.20;99.90
50947;DHT22;36955;47.416;7.716;2022-11-12T05:07:15;5.00;99.90
50947;DHT22;36955;47.416;7.716;2022-11-12T05:09:42;5.00;99.90
50947;DHT22;36955;47.416;7.716;2022-11-12T05:12:08;4.90;99.90
50947;DHT22;36955;47.416;7.716;2022-11-12T05:14:35;4.90;99.90
50947;DHT22;36955;47.416;7.716;2022-11-12T05:17:01;4.90;99.90
50947;DHT22;36955;47.416;7.716;2022-11-12T05:19:27;4.90;99.90
50947;DHT22;36955;47.416;7.716;2022-11-12T05:21:53;4.90;99.90
50947;DHT22;36955;47.416;7.716;2022-11-12T05:24:19;5.00;99.90
50947;DHT22;36955;47.416;7.716;2022-11-12T05:26:45;5.00;99.90
50947;DHT22;36955;47.416;7.716;2022-11-12T05:29:11;5.00;99.90
50947;DHT22;36955;47.416;7.716;2022-11-12T05:31:38;5.00;99.90
50947;DHT22;36955;47.416;7.716;2022-11-12T05:34:04;4.90;99.90
50947;DHT22;36955;47.416;7.716;2022-11-12T05:36:30;4.90;99.90
50947;DHT22;36955;47.416;7.716;2022-11-12T05:38:56;4.80;99.90
50947;DHT22;36955;47.416;7.716;2022-11-12T05:41:22;4.80;99.90
50947;DHT22;36955;47.416;7.716;2022-11-12T05:43:48;4.80;99.90
50947;DHT22;36955;47.416;7.716;2022-11-12T05:46:14;4.70;99.90
50947;DHT22;36955;47.416;7.716;2022-11-12T05:48:40;4.70;99.90
50947;DHT22;36955;47.416;7.716;2022-11-12T05:51:06;4.70;99.90
50947;DHT22;36955;47.416;7.716;2022-11-12T05:53:32;4.70;99.90
50947;DHT22;36955;47.416;7.716;2022-11-12T05:56:02;4.80;99.90
50947;DHT22;36955;47.416;7.716;2022-11-12T05:58:28;4.80;99.90
50947;DHT22;36955;47.416;7.716;2022-11-12T06:00:54;4.80;99.90
50947;DHT22;36955;47.416;7.716;2022-11-12T06:03:20;4.80;99.90
50947;DHT22;36955;47.416;7.716;2022-11-12T06:05:46;4.80;99.90
50947;DHT22;36955;47.416;7.716;2022-11-12T06:08:12;4.90;99.90
50947;DHT22;36955;47.416;7.716;2022-11-12T06:10:39;5.00;99.90
50947;DHT22;36955;47.416;7.716;2022-11-12T06:13:05;5.00;99.90
50947;DHT22;36955;47.416;7.716;2022-11-12T06:15:31;4.90;99.90
50947;DHT22;36955;47.416;7.716;2022-11-12T06:17:57;4.80;99.90
50947;DHT22;36955;47.416;7.716;2022-11-12T06:20:23;4.80;99.90
50947;DHT22;36955;47.416;7.716;2022-11-12T06:22:49;4.70;99.90
50947;DHT22;36955;47.416;7.716;2022-11-12T06:25:16;4.70;99.90
50947;DHT22;36955;47.416;7.716;2022-11-12T06:27:42;4.70;99.90
50947;DHT22;36955;47.416;7.716;2022-11-12T06:30:09;4.70;99.90
50947;DHT22;36955;47.416;7.716;2022-11-12T06:32:35;4.60;99.90
50947;DHT22;36955;47.416;7.716;2022-11-12T06:35:02;4.60;99.90
50947;DHT22;36955;47.416;7.716;2022-11-12T06:37:28;4.60;99.90
50947;DHT22;36955;47.416;7.716;2022-11-12T06:39:54;4.70;99.90
50947;DHT22;36955;47.416;7.716;2022-11-12T06:42:20;4.70;99.90
50947;DHT22;36955;47.416;7.716;2022-11-12T06:44:46;4.80;99.90
50947;DHT22;36955;47.416;7.716;2022-11-12T06:47:13;4.80;99.90
50947;DHT22;36955;47.416;7.716;2022-11-12T06:49:39;4.80;99.90
50947;DHT22;36955;47.416;7.716;2022-11-12T06:52:05;4.80;99.90
50947;DHT22;36955;47.416;7.716;2022-11-12T06:54:31;4.80;99.90
50947;DHT22;36955;47.416;7.716;2022-11-12T06:56:57;4.90;99.90
50947;DHT22;36955;47.416;7.716;2022-11-12T06:59:23;4.90;99.90
50947;DHT22;36955;47.416;7.716;2022-11-12T07:01:49;4.80;99.90
50947;DHT22;36955;47.416;7.716;2022-11-12T07:04:15;4.80;99.90
50947;DHT22;36955;47.416;7.716;2022-11-12T07:06:41;4.90;99.90
50947;DHT22;36955;47.416;7.716;2022-11-12T07:09:07;4.90;99.90
50947;DHT22;36955;47.416;7.716;2022-11-12T07:11:33;5.00;99.90
50947;DHT22;36955;47.416;7.716;2022-11-12T07:13:59;5.10;99.90
50947;DHT22;36955;47.416;7.716;2022-11-12T07:16:25;5.10;99.90
50947;DHT22;36955;47.416;7.716;2022-11-12T07:18:51;5.20;99.90
50947;DHT22;36955;47.416;7.716;2022-11-12T07:21:18;5.20;99.90
50947;DHT22;36955;47.416;7.716;2022-11-12T07:23:46;5.30;99.90
50947;DHT22;36955;47.416;7.716;2022-11-12T07:26:15;5.30;99.90
50947;DHT22;36955;47.416;7.716;2022-11-12T07:28:41;5.30;99.90
50947;DHT22;36955;47.416;7.716;2022-11-12T07:31:09;5.30;99.90
50947;DHT22;36955;47.416;7.716;2022-11-12T07:33:36;5.40;99.90
50947;DHT22;36955;47.416;7.716;2022-11-12T07:36:10;5.40;99.90
50947;DHT22;36955;47.416;7.716;2022-11-12T07:38:38;5.50;99.90
50947;DHT22;36955;47.416;7.716;2022-11-12T07:41:21;5.60;99.90
50947;DHT22;36955;47.416;7.716;2022-11-12T07:43:49;5.70;99.90
50947;DHT22;36955;47.416;7.716;2022-11-12T07:46:24;5.70;99.90
50947;DHT22;36955;47.416;7.716;2022-11-12T07:48:51;5.60;99.90
50947;DHT22;36955;47.416;7.716;2022-11-12T07:51:22;5.70;99.90
50947;DHT22;36955;47.416;7.716;2022-11-12T07:53:50;5.70;99.90
50947;DHT22;36955;47.416;7.716;2022-11-12T07:56:18;5.80;99.90
50947;DHT22;36955;47.416;7.716;2022-11-12T07:58:45;5.90;99.90
50947;DHT22;36955;47.416;7.716;2022-11-12T08:04:00;5.90;99.90
50947;DHT22;36955;47.416;7.716;2022-11-12T08:06:28;6.00;99.90
50947;DHT22;36955;47.416;7.716;2022-11-12T08:08:55;6.00;99.90
50947;DHT22;36955;47.416;7.716;2022-11-12T08:11:22;6.00;99.90
50947;DHT22;36955;47.416;7.716;2022-11-12T08:13:49;6.10;99.90
50947;DHT22;36955;47.416;7.716;2022-11-12T08:16:15;6.20;99.90
50947;DHT22;36955;47.416;7.716;2022-11-12T08:18:42;6.30;99.90
50947;DHT22;36955;47.416;7.716;2022-11-12T08:21:13;6.40;99.90
50947;DHT22;36955;47.416;7.716;2022-11-12T08:23:39;6.50;99.90
50947;DHT22;36955;47.416;7.716;2022-11-12T08:26:07;6.50;99.90
50947;DHT22;36955;47.416;7.716;2022-11-12T08:28:35;6.40;99.90
50947;DHT22;36955;47.416;7.716;2022-11-12T08:31:07;6.40;99.90
50947;DHT22;36955;47.416;7.716;2022-11-12T08:33:34;6.40;99.90
50947;DHT22;36955;47.416;7.716;2022-11-12T08:36:08;6.40;99.90
50947;DHT22;36955;47.416;7.716;2022-11-12T08:38:35;6.40;99.90
50947;DHT22;36955;47.416;7.716;2022-11-12T08:41:08;6.40;99.90
50947;DHT22;36955;47.416;7.716;2022-11-12T08:43:34;6.40;99.90
50947;DHT22;36955;47.416;7.716;2022-11-12T08:46:01;6.40;99.90
50947;DHT22;36955;47.416;7.716;2022-11-12T08:48:28;6.30;99.90
50947;DHT22;36955;47.416;7.716;2022-11-12T08:50:55;6.30;99.90
50947;DHT22;36955;47.416;7.716;2022-11-12T08:53:22;6.30;99.90
50947;DHT22;36955;47.416;7.716;2022-11-12T08:55:52;6.40;99.90
50947;DHT22;36955;47.416;7.716;2022-11-12T08:58:18;6.50;99.90
50947;DHT22;36955;47.416;7.716;2022-11-12T09:00:45;6.60;99.90
50947;DHT22;36955;47.416;7.716;2022-11-12T09:03:16;6.70;99.90
50947;DHT22;36955;47.416;7.716;2022-11-12T09:05:42;6.80;99.90
50947;DHT22;36955;47.416;7.716;2022-11-12T09:08:17;6.70;99.90
50947;DHT22;36955;47.416;7.716;2022-11-12T09:10:44;6.70;99.90
50947;DHT22;36955;47.416;7.716;2022-11-12T09:13:11;6.70;99.90
50947;DHT22;36955;47.416;7.716;2022-11-12T09:15:37;6.60;99.90
50947;DHT22;36955;47.416;7.716;2022-11-12T09:18:05;6.60;99.90
50947;DHT22;36955;47.416;7.716;2022-11-12T09:20:32;6.70;99.90
50947;DHT22;36955;47.416;7.716;2022-11-12T09:23:04;6.80;99.90
50947;DHT22;36955;47.416;7.716;2022-11-12T09:25:30;6.80;99.90
50947;DHT22;36955;47.416;7.716;2022-11-12T09:27:56;6.90;99.90
50947;DHT22;36955;47.416;7.716;2022-11-12T09:30:23;6.90;99.90
50947;DHT22;36955;47.416;7.716;2022-11-12T09:32:49;6.90;99.90
50947;DHT22;36955;47.416;7.716;2022-11-12T09:35:15;7.00;99.90
50947;DHT22;36955;47.416;7.716;2022-11-12T09:37:41;7.10;99.90
50947;DHT22;36955;47.416;7.716;2022-11-12T09:40:15;7.20;99.90
50947;DHT22;36955;47.416;7.716;2022-11-12T09:42:44;7.20;99.90
50947;DHT22;36955;47.416;7.716;2022-11-12T09:45:17;7.20;99.90
50947;DHT22;36955;47.416;7.716;2022-11-12T09:47:50;7.30;99.90
50947;DHT22;36955;47.416;7.716;2022-11-12T09:50:24;7.30;99.90
50947;DHT22;36955;47.416;7.716;2022-11-12T09:53:00;7.30;99.90
50947;DHT22;36955;47.416;7.716;2022-11-12T09:55:41;7.40;99.90
50947;DHT22;36955;47.416;7.716;2022-11-12T09:58:11;7.50;99.90
50947;DHT22;36955;47.416;7.716;2022-11-12T10:00:42;7.50;99.90
50947;DHT22;36955;47.416;7.716;2022-11-12T10:05:51;7.60;99.90
50947;DHT22;36955;47.416;7.716;2022-11-12T10:11:23;7.80;99.90
50947;DHT22;36955;47.416;7.716;2022-11-12T10:14:08;7.80;99.90
50947;DHT22;36955;47.416;7.716;2022-11-12T10:16:53;7.90;99.90
50947;DHT22;36955;47.416;7.716;2022-11-12T10:22:29;8.10;99.90
50947;DHT22;36955;47.416;7.716;2022-11-12T10:25:12;8.20;99.90
50947;DHT22;36955;47.416;7.716;2022-11-12T10:27:40;8.30;99.90
50947;DHT22;36955;47.416;7.716;2022-11-12T10:32:42;8.30;99.90
50947;DHT22;36955;47.416;7.716;2022-11-12T10:35:10;8.30;99.90
50947;DHT22;36955;47.416;7.716;2022-11-12T10:37:46;8.30;99.90
50947;DHT22;36955;47.416;7.716;2022-11-12T10:45:25;8.40;99.90
50947;DHT22;36955;47.416;7.716;2022-11-12T10:47:51;8.40;99.90
50947;DHT22;36955;47.416;7.716;2022-11-12T10:53:04;8.50;99.90
50947;DHT22;36955;47.416;7.716;2022-11-12T10:55:33;8.60;99.90
50947;DHT22;36955;47.416;7.716;2022-11-12T11:00:35;8.70;99.90
50947;DHT22;36955;47.416;7.716;2022-11-12T11:03:15;8.70;99.90
50947;DHT22;36955;47.416;7.716;2022-11-12T11:08:42;8.80;99.90
50947;DHT22;36955;47.416;7.716;2022-11-12T11:11:19;8.90;99.90
50947;DHT22;36955;47.416;7.716;2022-11-12T11:13:48;9.00;99.90
50947;DHT22;36955;47.416;7.716;2022-11-12T11:16:19;9.10;99.90
50947;DHT22;36955;47.416;7.716;2022-11-12T11:18:48;9.20;99.90
50947;DHT22;36955;47.416;7.716;2022-11-12T11:26:58;9.20;99.90
50947;DHT22;36955;47.416;7.716;2022-11-12T11:32:19;9.30;99.90
50947;DHT22;36955;47.416;7.716;2022-11-12T11:37:28;9.50;99.90
50947;DHT22;36955;47.416;7.716;2022-11-12T11:40:26;9.50;99.90
50947;DHT22;36955;47.416;7.716;2022-11-12T11:42:57;9.60;99.90
50947;DHT22;36955;47.416;7.716;2022-11-12T11:48:17;9.70;99.90
50947;DHT22;36955;47.416;7.716;2022-11-12T11:51:14;9.80;99.90
50947;DHT22;36955;47.416;7.716;2022-11-12T11:54:00;9.80;99.90
50947;DHT22;36955;47.416;7.716;2022-11-12T11:56:35;9.80;99.90
50947;DHT22;36955;47.416;7.716;2022-11-12T11:59:19;9.90;99.90
50947;DHT22;36955;47.416;7.716;2022-11-12T12:02:25;9.90;99.90
50947;DHT22;36955;47.416;7.716;2022-11-12T12:06:18;10.00;99.90
50947;DHT22;36955;47.416;7.716;2022-11-12T12:08:19;10.00;99.90
50947;DHT22;36955;47.416;7.716;2022-11-12T12:10:59;10.10;99.90
50947;DHT22;36955;47.416;7.716;2022-11-12T12:21:39;10.30;99.90
50947;DHT22;36955;47.416;7.716;2022-11-12T12:25:00;10.20;99.90
50947;DHT22;36955;47.416;7.716;2022-11-12T12:27:24;10.30;99.90
50947;DHT22;36955;47.416;7.716;2022-11-12T12:29:55;10.30;99.90
50947;DHT22;36955;47.416;7.716;2022-11-12T12:32:27;10.40;99.90
50947;DHT22;36955;47.416;7.716;2022-11-12T12:35:21;10.50;99.90
50947;DHT22;36955;47.416;7.716;2022-11-12T12:38:02;10.60;99.90
50947;DHT22;36955;47.416;7.716;2022-11-12T12:40:34;10.70;99.90
50947;DHT22;36955;47.416;7.716;2022-11-12T12:43:21;10.70;99.90
50947;DHT22;36955;47.416;7.716;2022-11-12T12:45:51;10.90;99.90
50947;DHT22;36955;47.416;7.716;2022-11-12T12:48:26;11.00;99.90
50947;DHT22;36955;47.416;7.716;2022-11-12T12:50:53;11.10;99.90
50947;DHT22;36955;47.416;7.716;2022-11-12T12:55:53;11.10;99.90
50947;DHT22;36955;47.416;7.716;2022-11-12T13:01:06;11.40;99.90
50947;DHT22;36955;47.416;7.716;2022-11-12T13:08:47;11.50;99.90
50947;DHT22;36955;47.416;7.716;2022-11-12T13:11:46;11.40;99.90
50947;DHT22;36955;47.416;7.716;2022-11-12T13:17:01;11.10;99.90
50947;DHT22;36955;47.416;7.716;2022-11-12T13:19:33;11.00;99.90
50947;DHT22;36955;47.416;7.716;2022-11-12T13:25:22;10.80;99.90
50947;DHT22;36955;47.416;7.716;2022-11-12T13:35:19;10.80;99.90
50947;DHT22;36955;47.416;7.716;2022-11-12T13:43:35;10.80;99.90
50947;DHT22;36955;47.416;7.716;2022-11-12T13:46:15;10.70;99.90
50947;DHT22;36955;47.416;7.716;2022-11-12T13:48:47;10.80;99.90
50947;DHT22;36955;47.416;7.716;2022-11-12T13:53:59;10.80;99.90
50947;DHT22;36955;47.416;7.716;2022-11-12T13:56:31;10.80;99.90
50947;DHT22;36955;47.416;7.716;2022-11-12T13:59:14;10.70;99.90
50947;DHT22;36955;47.416;7.716;2022-11-12T14:01:41;10.60;99.90
50947;DHT22;36955;47.416;7.716;2022-11-12T14:04:12;10.70;99.90
50947;DHT22;36955;47.416;7.716;2022-11-12T14:06:46;10.70;99.90
50947;DHT22;36955;47.416;7.716;2022-11-12T14:09:22;10.70;99.90
50947;DHT22;36955;47.416;7.716;2022-11-12T14:17:46;10.80;99.90
50947;DHT22;36955;47.416;7.716;2022-11-12T14:20:27;10.80;99.90
50947;DHT22;36955;47.416;7.716;2022-11-12T14:22:53;10.80;99.90
50947;DHT22;36955;47.416;7.716;2022-11-12T14:25:26;10.80;99.90
50947;DHT22;36955;47.416;7.716;2022-11-12T14:27:54;10.80;99.90
50947;DHT22;36955;47.416;7.716;2022-11-12T14:30:23;10.90;99.90
50947;DHT22;36955;47.416;7.716;2022-11-12T14:32:58;10.90;99.90
50947;DHT22;36955;47.416;7.716;2022-11-12T14:40:31;11.00;99.90
50947;DHT22;36955;47.416;7.716;2022-11-12T14:42:57;11.00;99.90
50947;DHT22;36955;47.416;7.716;2022-11-12T14:45:23;11.00;99.90
50947;DHT22;36955;47.416;7.716;2022-11-12T14:47:51;11.00;99.90
50947;DHT22;36955;47.416;7.716;2022-11-12T14:50:30;11.00;99.90
50947;DHT22;36955;47.416;7.716;2022-11-12T14:55:48;10.90;99.90
50947;DHT22;36955;47.416;7.716;2022-11-12T14:58:17;10.90;99.90
50947;DHT22;36955;47.416;7.716;2022-11-12T15:00:49;10.80;99.90
50947;DHT22;36955;47.416;7.716;2022-11-12T15:03:25;10.60;99.90
50947;DHT22;36955;47.416;7.716;2022-11-12T15:08:34;10.10;99.90
50947;DHT22;36955;47.416;7.716;2022-11-12T15:11:29;10.00;99.90
50947;DHT22;36955;47.416;7.716;2022-11-12T15:13:57;10.00;99.90
50947;DHT22;36955;47.416;7.716;2022-11-12T15:21:54;10.00;99.90
50947;DHT22;36955;47.416;7.716;2022-11-12T15:24:35;10.00;99.90
50947;DHT22;36955;47.416;7.716;2022-11-12T15:30:22;9.90;99.90
50947;DHT22;36955;47.416;7.716;2022-11-12T15:33:05;9.90;99.90
50947;DHT22;36955;47.416;7.716;2022-11-12T15:35:33;9.80;99.90
50947;DHT22;36955;47.416;7.716;2022-11-12T15:38:02;9.70;99.90
50947;DHT22;36955;47.416;7.716;2022-11-12T15:40:31;9.60;99.90
50947;DHT22;36955;47.416;7.716;2022-11-12T15:42:58;9.50;99.90
50947;DHT22;36955;47.416;7.716;2022-11-12T15:45:25;9.40;99.90
50947;DHT22;36955;47.416;7.716;2022-11-12T15:47:51;9.30;99.90
50947;DHT22;36955;47.416;7.716;2022-11-12T15:50:22;9.30;99.90
50947;DHT22;36955;47.416;7.716;2022-11-12T15:52:49;9.20;99.90
50947;DHT22;36955;47.416;7.716;2022-11-12T15:55:15;9.10;99.90
50947;DHT22;36955;47.416;7.716;2022-11-12T15:57:48;9.00;99.90
50947;DHT22;36955;47.416;7.716;2022-11-12T16:00:26;8.80;99.90
50947;DHT22;36955;47.416;7.716;2022-11-12T16:05:25;8.60;99.90
50947;DHT22;36955;47.416;7.716;2022-11-12T16:07:51;8.50;99.90
50947;DHT22;36955;47.416;7.716;2022-11-12T16:10:18;8.50;99.90
50947;DHT22;36955;47.416;7.716;2022-11-12T16:12:45;8.40;99.90
50947;DHT22;36955;47.416;7.716;2022-11-12T16:15:17;8.40;99.90
50947;DHT22;36955;47.416;7.716;2022-11-12T16:17:44;8.30;99.90
50947;DHT22;36955;47.416;7.716;2022-11-12T16:20:19;8.30;99.90
50947;DHT22;36955;47.416;7.716;2022-11-12T16:22:46;8.30;99.90
50947;DHT22;36955;47.416;7.716;2022-11-12T16:25:12;8.20;99.90
50947;DHT22;36955;47.416;7.716;2022-11-12T16:27:39;8.20;99.90
50947;DHT22;36955;47.416;7.716;2022-11-12T16:30:13;8.10;99.90
50947;DHT22;36955;47.416;7.716;2022-11-12T16:32:39;8.00;99.90
50947;DHT22;36955;47.416;7.716;2022-11-12T16:35:06;7.90;99.90
50947;DHT22;36955;47.416;7.716;2022-11-12T16:37:32;7.80;99.90
50947;DHT22;36955;47.416;7.716;2022-11-12T16:39:58;7.80;99.90
50947;DHT22;36955;47.416;7.716;2022-11-12T16:42:24;7.70;99.90
50947;DHT22;36955;47.416;7.716;2022-11-12T16:44:50;7.70;99.90
50947;DHT22;36955;47.416;7.716;2022-11-12T16:47:16;7.60;99.90
50947;DHT22;36955;47.416;7.716;2022-11-12T16:49:42;7.60;99.90
50947;DHT22;36955;47.416;7.716;2022-11-12T16:52:09;7.60;99.90
50947;DHT22;36955;47.416;7.716;2022-11-12T16:54:35;7.60;99.90
50947;DHT22;36955;47.416;7.716;2022-11-12T16:57:01;7.50;99.90
50947;DHT22;36955;47.416;7.716;2022-11-12T16:59:27;7.40;99.90
50947;DHT22;36955;47.416;7.716;2022-11-12T17:01:53;7.50;99.90
50947;DHT22;36955;47.416;7.716;2022-11-12T17:04:22;7.40;99.90
50947;DHT22;36955;47.416;7.716;2022-11-12T17:06:48;7.40;99.90
50947;DHT22;36955;47.416;7.716;2022-11-12T17:09:15;7.40;99.90
50947;DHT22;36955;47.416;7.716;2022-11-12T17:11:41;7.40;99.90
50947;DHT22;36955;47.416;7.716;2022-11-12T17:14:07;7.40;99.90
50947;DHT22;36955;47.416;7.716;2022-11-12T17:16:33;7.40;99.90
50947;DHT22;36955;47.416;7.716;2022-11-12T17:19:00;7.40;99.90
50947;DHT22;36955;47.416;7.716;2022-11-12T17:21:26;7.40;99.90
50947;DHT22;36955;47.416;7.716;2022-11-12T17:23:54;7.40;99.90
50947;DHT22;36955;47.416;7.716;2022-11-12T17:26:20;7.30;99.90
50947;DHT22;36955;47.416;7.716;2022-11-12T17:28:47;7.30;99.90
50947;DHT22;36955;47.416;7.716;2022-11-12T17:31:19;7.40;99.90
50947;DHT22;36955;47.416;7.716;2022-11-12T17:33:50;7.30;99.90
50947;DHT22;36955;47.416;7.716;2022-11-12T17:36:22;7.40;99.90
50947;DHT22;36955;47.416;7.716;2022-11-12T17:38:55;7.30;99.90
50947;DHT22;36955;47.416;7.716;2022-11-12T17:41:22;7.30;99.90
50947;DHT22;36955;47.416;7.716;2022-11-12T17:43:58;7.20;99.90
50947;DHT22;36955;47.416;7.716;2022-11-12T17:46:26;7.20;99.90
50947;DHT22;36955;47.416;7.716;2022-11-12T17:48:53;7.20;99.90